createdAt,value
2018-03-19T00:00:32.703Z,31.12
2018-03-19T00:03:03.912Z,27.37
2018-03-19T00:05:35.149Z,32.67
2018-03-19T00:08:06.794Z,31.00
2018-03-19T00:10:36.938Z,31.07
2018-03-19T00:13:07.806Z,34.07
2018-03-19T00:15:39.418Z,31.97
2018-03-19T00:18:11.091Z,40.10
2018-03-19T00:20:43.092Z,30.97
2018-03-19T00:23:14.721Z,36.10
2018-03-19T00:25:49.372Z,33.93
2018-03-19T00:28:27.930Z,36.37
2018-03-19T00:31:01.314Z,34.53
2018-03-19T00:33:31.783Z,26.40
2018-03-19T00:36:03.041Z,34.30
2018-03-19T00:38:35.755Z,33.27
2018-03-19T00:41:06.718Z,31.27
2018-03-19T00:43:42.116Z,33.60
2018-03-19T00:46:13.611Z,33.60
2018-03-19T00:48:48.815Z,30.88
2018-03-19T00:51:24.272Z,27.90
2018-03-19T00:54:04.332Z,31.62
2018-03-19T00:56:35.037Z,33.43
2018-03-19T00:59:06.692Z,33.43
2018-03-19T01:01:38.146Z,28.80
2018-03-19T01:04:31.684Z,31.50
2018-03-19T01:07:04.148Z,32.77
2018-03-19T01:09:36.656Z,33.33
2018-03-19T01:12:09.773Z,29.27
2018-03-19T01:14:43.652Z,29.83
2018-03-19T01:17:14.762Z,30.87
2018-03-19T01:19:45.035Z,26.30
2018-03-19T01:22:16.975Z,33.37
2018-03-19T01:24:46.846Z,27.87
2018-03-19T01:27:19.201Z,28.10
2018-03-19T01:29:51.508Z,25.70
2018-03-19T01:32:22.900Z,29.23
2018-03-19T01:34:54.712Z,27.43
2018-03-19T01:37:26.846Z,28.70
2018-03-19T01:39:58.488Z,28.47
2018-03-19T01:42:28.659Z,28.77
2018-03-19T01:44:59.988Z,29.47
2018-03-19T01:47:56.870Z,32.53
2018-03-19T01:50:32.302Z,33.25
2018-03-19T01:53:03.051Z,29.37
2018-03-19T01:55:46.373Z,26.97
2018-03-19T01:58:21.688Z,28.37
2018-03-19T02:00:55.553Z,30.83
2018-03-19T02:03:29.391Z,27.35
2018-03-19T02:06:02.561Z,29.00
2018-03-19T02:08:37.294Z,32.63
2018-03-19T02:11:07.634Z,30.43
2018-03-19T02:13:39.219Z,25.88
2018-03-19T02:16:10.920Z,30.92
2018-03-19T02:18:43.102Z,30.43
2018-03-19T02:21:14.383Z,28.20
2018-03-19T02:23:47.084Z,29.15
2018-03-19T02:26:17.529Z,29.43
2018-03-19T02:28:47.863Z,25.33
2018-03-19T02:31:22.683Z,31.50
2018-03-19T02:33:57.027Z,23.93
2018-03-19T02:36:29.096Z,28.97
2018-03-19T02:39:00.095Z,33.03
2018-03-19T02:41:29.914Z,29.77
2018-03-19T02:44:01.384Z,29.85
2018-03-19T02:46:32.185Z,29.10
2018-03-19T02:49:04.074Z,30.27
2018-03-19T02:51:42.518Z,33.40
2018-03-19T02:54:17.886Z,27.43
2018-03-19T02:56:47.971Z,34.53
2018-03-19T02:59:19.534Z,31.43
2018-03-19T03:01:50.293Z,30.43
2018-03-19T03:04:22.440Z,35.00
2018-03-19T03:06:53.371Z,30.83
2018-03-19T03:09:28.162Z,30.07
2018-03-19T03:11:59.566Z,33.20
2018-03-19T03:14:29.960Z,30.77
2018-03-19T03:17:02.513Z,31.20
2018-03-19T03:19:34.890Z,33.20
2018-03-19T03:22:13.696Z,28.83
2018-03-19T03:24:46.063Z,32.57
2018-03-19T03:27:19.276Z,30.40
2018-03-19T03:29:49.639Z,31.57
2018-03-19T03:32:20.497Z,27.57
2018-03-19T03:34:55.966Z,33.57
2018-03-19T03:37:27.123Z,32.20
2018-03-19T03:39:59.206Z,28.77
2018-03-19T03:42:29.756Z,26.00
2018-03-19T03:45:00.379Z,29.40
2018-03-19T03:47:31.739Z,29.23
2018-03-19T03:50:03.556Z,31.80
2018-03-19T03:52:37.399Z,29.97
2018-03-19T03:55:08.217Z,30.03
2018-03-19T03:57:41.248Z,28.20
2018-03-19T04:00:16.096Z,28.62
2018-03-19T04:02:51.836Z,27.27
2018-03-19T04:05:26.065Z,31.50
2018-03-19T04:07:56.867Z,28.60
2018-03-19T04:10:33.835Z,33.17
2018-03-19T04:13:05.428Z,27.50
2018-03-19T04:15:38.433Z,32.35
2018-03-19T04:18:09.782Z,34.33
2018-03-19T04:20:41.095Z,25.80
2018-03-19T04:23:16.459Z,27.40
2018-03-19T04:25:49.076Z,27.13
2018-03-19T04:28:25.545Z,27.97
2018-03-19T04:30:58.456Z,28.03
2018-03-19T04:33:29.891Z,31.50
2018-03-19T04:36:03.698Z,26.33
2018-03-19T04:38:35.152Z,29.57
2018-03-19T04:41:06.504Z,29.73
2018-03-19T04:43:38.917Z,32.60
2018-03-19T04:46:10.060Z,29.30
2018-03-19T04:48:41.855Z,27.87
2018-03-19T04:51:14.899Z,25.40
2018-03-19T04:53:47.092Z,26.27
2018-03-19T04:56:19.694Z,28.60
2018-03-19T04:58:54.027Z,28.37
2018-03-19T05:01:25.515Z,29.63
2018-03-19T05:03:59.948Z,31.57
2018-03-19T05:06:30.926Z,29.53
2018-03-19T05:09:02.197Z,30.73
2018-03-19T05:11:33.043Z,29.50
2018-03-19T05:14:05.210Z,30.17
2018-03-19T05:16:35.835Z,28.47
2018-03-19T05:19:06.071Z,30.17
2018-03-19T05:21:39.338Z,27.83
2018-03-19T05:24:09.630Z,30.80
2018-03-19T05:26:40.864Z,23.70
2018-03-19T05:29:14.198Z,29.10
2018-03-19T05:31:45.458Z,28.20
2018-03-19T05:34:17.008Z,31.23
2018-03-19T05:36:48.832Z,27.57
2018-03-19T05:39:20.406Z,27.65
2018-03-19T05:41:52.458Z,24.33
2018-03-19T05:44:23.690Z,27.30
2018-03-19T05:46:57.479Z,29.50
2018-03-19T05:49:27.497Z,27.37
2018-03-19T05:52:01.649Z,27.70
2018-03-19T05:54:39.043Z,27.58
2018-03-19T05:57:11.908Z,26.53
2018-03-19T05:59:45.945Z,30.20
2018-03-19T06:02:17.787Z,27.33
2018-03-19T06:04:48.605Z,28.20
2018-03-19T06:07:20.784Z,26.83
2018-03-19T06:09:53.114Z,28.70
2018-03-19T06:12:23.930Z,27.43
2018-03-19T06:14:54.263Z,29.63
2018-03-19T06:17:25.000Z,27.83
2018-03-19T06:19:57.380Z,27.87
2018-03-19T06:22:29.331Z,28.50
2018-03-19T06:24:59.483Z,28.20
2018-03-19T06:27:30.462Z,26.90
2018-03-19T06:30:02.648Z,30.65
2018-03-19T06:32:32.509Z,28.00
2018-03-19T06:35:03.807Z,24.10
2018-03-19T06:37:36.406Z,30.60
2018-03-19T06:40:06.717Z,26.07
2018-03-19T06:42:41.482Z,30.73
2018-03-19T06:45:15.927Z,26.50
2018-03-19T06:47:48.704Z,26.93
2018-03-19T06:50:20.732Z,33.10
2018-03-19T06:53:00.082Z,34.70
2018-03-19T06:55:32.422Z,27.20
2018-03-19T06:58:07.262Z,25.90
2018-03-19T07:00:40.560Z,32.10
2018-03-19T07:03:17.288Z,31.57
2018-03-19T07:05:50.935Z,27.70
2018-03-19T07:08:27.157Z,26.33
2018-03-19T07:10:57.647Z,30.43
2018-03-19T07:13:35.410Z,25.70
2018-03-19T07:16:07.363Z,26.23
2018-03-19T07:18:42.439Z,26.33
2018-03-19T07:21:14.913Z,32.00
2018-03-19T07:23:45.200Z,26.20
2018-03-19T07:26:17.505Z,32.97
2018-03-19T07:28:49.314Z,28.33
2018-03-19T07:31:20.941Z,24.23
2018-03-19T07:33:52.749Z,25.50
2018-03-19T07:36:26.389Z,24.77
2018-03-19T07:39:00.387Z,24.30
2018-03-19T07:41:36.731Z,25.67
2018-03-19T07:44:09.653Z,27.50
2018-03-19T07:46:41.862Z,27.37
2018-03-19T07:49:12.443Z,25.67
2018-03-19T07:51:48.408Z,27.43
2018-03-19T07:54:19.967Z,28.60
2018-03-19T07:56:55.533Z,24.93
2018-03-19T07:59:25.657Z,24.83
2018-03-19T08:01:55.785Z,33.87
2018-03-19T08:04:32.410Z,31.67
2018-03-19T08:07:03.205Z,33.60
2018-03-19T08:09:36.153Z,32.67
2018-03-19T08:12:08.021Z,30.23
2018-03-19T08:14:41.980Z,31.83
2018-03-19T08:17:15.574Z,31.30
2018-03-19T08:19:47.953Z,30.67
2018-03-19T08:22:18.886Z,40.20
2018-03-19T08:24:53.504Z,33.57
2018-03-19T08:27:24.083Z,30.77
2018-03-19T08:29:54.743Z,32.93
2018-03-19T08:32:26.810Z,30.43
2018-03-19T08:35:05.167Z,28.07
2018-03-19T08:37:35.168Z,25.60
2018-03-19T08:40:10.352Z,26.97
2018-03-19T08:42:45.194Z,28.43
2018-03-19T08:45:14.987Z,30.50
2018-03-19T08:47:46.861Z,27.27
2018-03-19T08:50:16.971Z,30.13
2018-03-19T08:52:48.284Z,23.93
2018-03-19T08:55:20.892Z,25.27
2018-03-19T08:57:51.788Z,30.27
2018-03-19T09:00:24.090Z,27.43
2018-03-19T09:02:54.277Z,30.30
2018-03-19T09:05:23.768Z,26.92
2018-03-19T09:07:53.801Z,27.97
2018-03-19T09:10:23.234Z,30.30
2018-03-19T09:12:53.645Z,31.80
2018-03-19T09:15:22.913Z,31.23
2018-03-19T09:17:54.275Z,29.43
2018-03-19T09:20:23.575Z,31.60
2018-03-19T09:22:53.682Z,30.47
2018-03-19T09:25:23.100Z,33.10
2018-03-19T09:27:53.828Z,30.33
2018-03-19T09:30:24.277Z,27.90
2018-03-19T09:32:56.427Z,28.10
2018-03-19T09:35:29.119Z,29.87
2018-03-19T09:38:02.227Z,27.33
2018-03-19T09:40:35.282Z,28.20
2018-03-19T09:43:06.786Z,31.17
2018-03-19T09:45:41.688Z,29.13
2018-03-19T09:48:12.915Z,32.00
2018-03-19T09:50:42.357Z,32.53
2018-03-19T09:53:12.457Z,30.43
2018-03-19T09:55:41.752Z,32.63
2018-03-19T09:58:11.109Z,29.12
2018-03-19T10:00:43.761Z,32.93
2018-03-19T10:03:14.444Z,29.63
2018-03-19T10:05:43.745Z,36.23
2018-03-19T10:08:13.038Z,33.77
2018-03-19T10:10:42.333Z,32.30
2018-03-19T10:13:11.694Z,30.23
2018-03-19T10:15:41.021Z,32.30
2018-03-19T10:18:11.120Z,28.63
2018-03-19T10:20:40.439Z,32.07
2018-03-19T10:23:10.502Z,30.23
2018-03-19T10:25:39.860Z,26.87
2018-03-19T10:28:11.144Z,24.90
2018-03-19T10:30:47.465Z,20.70
2018-03-19T10:33:17.914Z,18.47
2018-03-19T10:35:53.648Z,18.20
2018-03-19T10:38:28.280Z,17.67
2018-03-19T10:41:02.448Z,17.90
2018-03-19T10:43:36.905Z,18.57
2018-03-19T10:46:09.413Z,14.63
2018-03-19T10:48:42.192Z,21.57
2018-03-19T10:51:12.677Z,17.00
2018-03-19T10:53:41.953Z,21.13
2018-03-19T10:56:11.337Z,17.87
2018-03-19T10:58:41.429Z,19.30
2018-03-19T11:04:15.588Z,16.10
2018-03-19T11:06:45.674Z,16.03
2018-03-19T11:09:20.721Z,18.83
2018-03-19T11:11:50.796Z,17.07
2018-03-19T11:14:20.065Z,17.60
2018-03-19T11:16:49.544Z,16.23
2018-03-19T11:19:19.448Z,17.50
2018-03-19T11:21:48.846Z,17.83
2018-03-19T11:24:18.205Z,19.27
2018-03-19T11:26:47.540Z,18.98
2018-03-19T11:29:16.831Z,15.33
2018-03-19T11:31:46.137Z,20.80
2018-03-19T11:34:15.448Z,20.57
2018-03-19T11:36:44.779Z,14.93
2018-03-19T11:39:14.175Z,17.33
2018-03-19T11:41:44.304Z,15.27
2018-03-19T11:44:14.436Z,17.17
2018-03-19T11:46:43.769Z,15.90
2018-03-19T11:49:13.099Z,17.48
2018-03-19T11:51:42.438Z,13.62
2018-03-19T11:54:11.725Z,12.93
2018-03-19T11:56:41.051Z,15.65
2018-03-19T11:59:10.380Z,14.37
2018-03-19T12:01:39.697Z,13.37
2018-03-19T12:04:09.000Z,11.67
2018-03-19T12:06:38.371Z,13.73
2018-03-19T12:09:07.762Z,14.23
2018-03-19T12:11:38.384Z,19.67
2018-03-19T12:14:07.814Z,11.83
2018-03-19T12:16:37.106Z,17.37
2018-03-19T12:19:06.468Z,16.87
2018-03-19T12:21:35.755Z,19.27
2018-03-19T12:24:05.517Z,17.58
2018-03-19T12:26:34.909Z,14.80
2018-03-19T12:29:05.580Z,18.57
2018-03-19T12:31:42.340Z,15.60
2018-03-19T12:34:14.774Z,15.83
2018-03-19T12:36:49.016Z,17.65
2018-03-19T12:39:18.986Z,18.37
2018-03-19T12:41:49.982Z,14.73
2018-03-19T12:44:23.502Z,16.50
2018-03-19T12:46:55.450Z,15.67
2018-03-19T12:49:25.920Z,17.10
2018-03-19T12:54:34.792Z,18.67
2018-03-19T12:57:05.297Z,17.33
2018-03-19T12:59:37.303Z,18.13
2018-03-19T13:02:10.162Z,14.07
2018-03-19T13:04:41.201Z,12.65
2018-03-19T13:07:16.006Z,18.20
2018-03-19T13:09:51.038Z,17.30
2018-03-19T13:12:27.138Z,14.80
2018-03-19T13:15:01.355Z,18.13
2018-03-19T13:17:33.146Z,15.97
2018-03-19T13:20:03.084Z,16.00
2018-03-19T13:22:32.894Z,19.12
2018-03-19T13:25:03.660Z,18.30
2018-03-19T13:27:33.452Z,17.80
2018-03-19T13:30:04.701Z,15.73
2018-03-19T13:32:36.636Z,16.03
2018-03-19T13:35:12.425Z,17.20
2018-03-19T13:37:43.912Z,18.42
2018-03-19T13:40:16.870Z,16.83
2018-03-19T13:42:46.777Z,17.03
2018-03-19T13:45:26.173Z,17.43
2018-03-19T13:47:57.242Z,17.87
2018-03-19T13:50:29.707Z,17.93
2018-03-19T13:52:59.807Z,15.87
2018-03-19T13:55:29.762Z,15.67
2018-03-19T13:58:00.686Z,16.83
2018-03-19T14:00:32.230Z,18.60
2018-03-19T14:03:06.269Z,16.60
2018-03-19T14:05:37.523Z,16.27
2018-03-19T14:08:10.472Z,17.50
2018-03-19T14:10:45.536Z,18.33
2018-03-19T14:13:18.626Z,20.90
2018-03-19T14:15:49.968Z,21.27
2018-03-19T14:18:23.021Z,19.23
2018-03-19T14:20:55.470Z,15.80
2018-03-19T14:23:26.234Z,16.48
2018-03-19T14:25:57.259Z,17.13
2018-03-19T14:28:30.695Z,20.98
2018-03-19T14:31:06.300Z,20.63
2018-03-19T14:33:37.096Z,17.23
2018-03-19T14:36:10.194Z,20.70
2018-03-19T14:38:41.231Z,19.20
2018-03-19T14:41:12.712Z,20.67
2018-03-19T14:43:47.730Z,18.57
2018-03-19T14:46:19.442Z,18.20
2018-03-19T14:48:50.048Z,21.30
2018-03-19T14:51:23.482Z,22.67
2018-03-19T14:53:55.188Z,20.57
2018-03-19T14:56:28.193Z,18.43
2018-03-19T14:59:00.696Z,19.10
2018-03-19T15:01:32.848Z,21.07
2018-03-19T15:04:05.684Z,22.07
2018-03-19T15:06:41.148Z,19.53
2018-03-19T15:09:11.751Z,19.33
2018-03-19T15:11:43.212Z,19.52
2018-03-19T15:14:18.885Z,18.90
2018-03-19T15:16:52.367Z,17.73
2018-03-19T15:19:24.244Z,20.30
2018-03-19T15:21:57.121Z,20.33
2018-03-19T15:24:28.464Z,23.80
2018-03-19T15:27:00.853Z,21.13
2018-03-19T15:29:31.406Z,19.80
2018-03-19T15:32:05.263Z,18.40
2018-03-19T15:34:37.592Z,21.47
2018-03-19T15:37:10.027Z,20.17
2018-03-19T15:39:43.279Z,19.97
2018-03-19T15:42:15.945Z,20.73
2018-03-19T15:44:46.354Z,20.70
2018-03-19T15:47:20.616Z,19.67
2018-03-19T15:49:54.339Z,23.50
2018-03-19T15:52:24.958Z,17.83
2018-03-19T15:54:55.208Z,21.30
2018-03-19T15:57:25.731Z,21.47
2018-03-19T15:59:57.688Z,23.60
2018-03-19T16:02:29.482Z,18.50
2018-03-19T16:05:04.060Z,22.62
2018-03-19T16:07:36.410Z,22.70
2018-03-19T16:10:07.440Z,21.53
2018-03-19T16:12:38.912Z,23.07
2018-03-19T16:15:10.146Z,23.80
2018-03-19T16:17:41.391Z,30.37
2018-03-19T16:20:12.070Z,23.33
2018-03-19T16:22:44.298Z,23.30
2018-03-19T16:25:14.983Z,25.43
2018-03-19T16:27:46.786Z,26.97
2018-03-19T16:30:18.912Z,24.03
2018-03-19T16:32:50.778Z,24.12
2018-03-19T16:35:22.306Z,21.70
2018-03-19T16:37:54.683Z,25.96
2018-03-19T16:40:26.649Z,25.27
2018-03-19T16:42:57.715Z,25.50
2018-03-19T16:45:34.409Z,24.87
2018-03-19T16:48:08.921Z,26.40
2018-03-19T16:50:45.355Z,29.87
2018-03-19T16:53:16.843Z,24.65
2018-03-19T16:55:47.334Z,26.90
2018-03-19T16:58:19.140Z,24.37
2018-03-19T17:00:53.230Z,29.07
2018-03-19T17:03:26.172Z,25.13
2018-03-19T17:06:00.671Z,30.67
2018-03-19T17:08:32.007Z,24.10
2018-03-19T17:11:02.065Z,24.87
2018-03-19T17:13:36.737Z,26.33
2018-03-19T17:16:08.021Z,28.63
2018-03-19T17:18:42.190Z,36.97
2018-03-19T17:21:13.583Z,39.77
2018-03-19T17:23:45.602Z,43.63
2018-03-19T17:26:17.855Z,36.23
2018-03-19T17:28:50.516Z,37.47
2018-03-19T17:31:21.723Z,36.83
2018-03-19T17:33:52.792Z,32.77
2018-03-19T17:36:23.395Z,33.50
2018-03-19T17:38:56.314Z,37.03
2018-03-19T17:41:26.224Z,36.10
2018-03-19T17:43:58.376Z,32.40
2018-03-19T17:46:30.109Z,36.80
2018-03-19T17:49:00.034Z,34.40
2018-03-19T17:51:34.299Z,35.90
2018-03-19T17:54:05.134Z,32.40
2018-03-19T17:56:40.266Z,31.20
2018-03-19T17:59:15.416Z,32.90
2018-03-19T18:01:48.466Z,34.37
2018-03-19T18:04:19.711Z,33.47
2018-03-19T18:06:54.144Z,54.20
2018-03-19T18:09:27.955Z,31.17
2018-03-19T18:11:59.569Z,34.53
2018-03-19T18:14:33.664Z,57.60
2018-03-19T18:17:03.460Z,59.35
2018-03-19T18:19:35.248Z,57.30
2018-03-19T18:22:05.395Z,34.87
2018-03-19T18:24:37.939Z,33.07
2018-03-19T18:27:08.005Z,28.57
2018-03-19T18:29:38.683Z,33.73
2018-03-19T18:32:09.335Z,30.10
2018-03-19T18:34:40.811Z,29.70
2018-03-19T18:37:12.932Z,30.10
2018-03-19T18:39:47.746Z,32.67
2018-03-19T18:42:18.658Z,29.87
2018-03-19T18:44:54.663Z,34.13
2018-03-19T18:47:27.039Z,34.23
2018-03-19T18:50:00.998Z,35.80
2018-03-19T18:52:32.675Z,37.23
2018-03-19T18:55:04.972Z,31.77
2018-03-19T18:57:36.040Z,35.83
2018-03-19T19:00:09.956Z,31.55
2018-03-19T19:02:44.530Z,32.10
2018-03-19T19:05:16.496Z,37.30
2018-03-19T19:07:47.511Z,32.88
2018-03-19T19:10:20.997Z,30.20
2018-03-19T19:12:55.600Z,34.20
2018-03-19T19:15:27.277Z,30.67
2018-03-19T19:18:02.612Z,32.60
2018-03-19T19:20:39.827Z,32.47
2018-03-19T19:23:24.165Z,32.03
2018-03-19T19:26:04.550Z,31.83
2018-03-19T19:28:45.833Z,32.97
2018-03-19T19:31:23.512Z,28.37
2018-03-19T19:34:06.770Z,33.43
2018-03-19T19:36:43.402Z,32.20
2018-03-19T19:39:23.398Z,35.37
2018-03-19T19:41:57.811Z,33.23
2018-03-19T19:44:37.433Z,31.80
2018-03-19T19:49:54.936Z,29.67
2018-03-19T19:52:28.816Z,30.30
2018-03-19T19:54:58.950Z,31.43
2018-03-19T19:57:35.386Z,32.27
2018-03-19T20:00:07.011Z,29.10
2018-03-19T20:02:39.083Z,32.40
2018-03-19T20:05:09.046Z,28.67
2018-03-19T20:07:39.674Z,34.20
2018-03-19T20:10:13.087Z,30.33
2018-03-19T20:12:44.288Z,27.98
2018-03-19T20:15:16.351Z,31.87
2018-03-19T20:17:48.929Z,34.08
2018-03-19T20:20:20.567Z,34.67
2018-03-19T20:22:54.021Z,24.70
2018-03-19T20:25:25.199Z,29.97
2018-03-19T20:27:56.415Z,31.13
2018-03-19T20:30:26.975Z,26.10
2018-03-19T20:32:57.314Z,26.20
2018-03-19T20:35:28.572Z,28.13
2018-03-19T20:37:59.474Z,27.87
2018-03-19T20:40:32.887Z,29.63
2018-03-19T20:43:07.253Z,32.03
2018-03-19T20:45:38.594Z,32.97
2018-03-19T20:48:08.876Z,34.23
2018-03-19T20:50:39.309Z,32.05
2018-03-19T20:53:12.245Z,32.47
2018-03-19T20:55:42.311Z,28.05
2018-03-19T20:58:22.095Z,29.54
2018-03-19T21:00:53.871Z,29.63
2018-03-19T21:03:24.522Z,29.27
2018-03-19T21:05:58.223Z,33.08
2018-03-19T21:08:28.725Z,31.83
2018-03-19T21:10:59.325Z,29.77
2018-03-19T21:13:31.966Z,31.58
2018-03-19T21:16:03.124Z,32.83
2018-03-19T21:18:33.202Z,33.63
2018-03-19T21:21:04.935Z,28.87
2018-03-19T21:23:41.379Z,35.23
2018-03-19T21:26:15.410Z,33.73
2018-03-19T21:28:47.696Z,30.30
2018-03-19T21:31:18.501Z,31.17
2018-03-19T21:33:50.604Z,29.00
2018-03-19T21:36:25.714Z,29.90
2018-03-19T21:38:55.906Z,32.17
2018-03-19T21:41:28.916Z,31.53
2018-03-19T21:44:00.938Z,35.50
2018-03-19T21:46:32.615Z,32.57
2018-03-19T21:49:02.678Z,33.80
2018-03-19T21:51:34.707Z,34.83
2018-03-19T21:54:04.865Z,32.83
2018-03-19T21:56:36.894Z,33.20
2018-03-19T21:59:08.395Z,36.00
2018-03-19T22:01:46.245Z,34.20
2018-03-19T22:04:18.082Z,36.70
2018-03-19T22:06:49.187Z,42.27
2018-03-19T22:09:19.799Z,37.37
2018-03-19T22:11:54.549Z,37.80
2018-03-19T22:14:25.203Z,35.67
2018-03-19T22:16:57.927Z,37.97
2018-03-19T22:19:28.920Z,40.22
2018-03-19T22:21:58.802Z,35.77
2018-03-19T22:24:29.618Z,32.03
2018-03-19T22:27:00.275Z,34.65
2018-03-19T22:29:33.246Z,38.83
2018-03-19T22:32:04.160Z,35.67
2018-03-19T22:34:37.101Z,42.70
2018-03-19T22:37:07.100Z,33.87
2018-03-19T22:39:37.510Z,41.37
2018-03-19T22:42:12.144Z,36.30
2018-03-19T22:44:44.324Z,33.70
2018-03-19T22:47:16.137Z,28.20
2018-03-19T22:49:46.394Z,29.33
2018-03-19T22:52:16.399Z,32.05
2018-03-19T22:54:46.714Z,33.07
2018-03-19T22:57:18.664Z,34.20
2018-03-19T22:59:48.871Z,28.48
2018-03-19T23:02:18.819Z,32.67
2018-03-19T23:05:25.107Z,34.30
2018-03-19T23:07:56.961Z,38.35
2018-03-19T23:10:29.244Z,33.23
2018-03-19T23:13:00.455Z,32.60
2018-03-19T23:15:32.723Z,41.50
2018-03-19T23:18:06.720Z,45.87
2018-03-19T23:20:40.471Z,37.38
2018-03-19T23:23:10.509Z,35.57
2018-03-19T23:25:41.546Z,37.93
2018-03-19T23:28:13.969Z,38.20
2018-03-19T23:30:47.404Z,32.97
2018-03-19T23:33:17.802Z,26.23
2018-03-19T23:35:48.925Z,32.42
2018-03-19T23:38:20.112Z,29.98
2018-03-19T23:40:50.872Z,27.13
2018-03-19T23:43:23.810Z,32.33
2018-03-19T23:45:58.045Z,31.27
2018-03-19T23:48:29.287Z,33.47
2018-03-19T23:51:00.058Z,30.37
2018-03-19T23:53:30.214Z,28.77
2018-03-19T23:56:02.182Z,32.77
2018-03-19T23:58:33.476Z,34.23
